Time;durP1;ratioP1;P1;durP2;ratioP2;P2;SDS_P1;SDS_P2;PMS_P1;PMS_P2;Temp;Humidity;BMP_temperature;BMP_pressure;BME280_temperature;BME280_humidity;BME280_pressure;Samples;Min_cycle;Max_cycle;Signal;HPM_P1;HPM_P2
2022/01/27 00:03:13;;;;;;;26.47;11.33;;;;;;;;;;5068847;28;20141;-71
2022/01/27 00:05:45;;;;;;;27.23;12.07;;;;;;;;;;5067902;28;20036;-70
2022/01/27 00:08:15;;;;;;;27.20;10.80;;;;;;;;;;5069875;28;20427;-71
2022/01/27 00:10:58;;;;;;;30.53;11.83;;;;;;;;;;5067861;28;20031;-72
2022/01/27 00:13:30;;;;;;;28.17;11.00;;;;;;;;;;5068360;28;20020;-69
2022/01/27 00:16:18;;;;;;;22.10;10.57;;;;;;;;;;5069783;28;20025;-73
2022/01/27 00:18:45;;;;;;;30.63;12.37;;;;;;;;;;5069448;28;20028;-73
2022/01/27 00:21:11;;;;;;;26.93;11.50;;;;;;;;;;5068194;28;20032;-72
2022/01/27 00:23:37;;;;;;;30.50;11.60;;;;;;;;;;5069534;28;20028;-71
2022/01/27 00:26:04;;;;;;;21.17;9.77;;;;;;;;;;5068098;28;20077;-70
2022/01/27 00:28:29;;;;;;;29.67;12.17;;;;;;;;;;5069452;28;20055;-71
2022/01/27 00:30:55;;;;;;;25.27;11.30;;;;;;;;;;5069378;28;20052;-71
2022/01/27 00:33:21;;;;;;;25.37;9.97;;;;;;;;;;5069408;28;20439;-71
2022/01/27 00:35:46;;;;;;;27.63;12.83;;;;;;;;;;5067760;28;20400;-71
2022/01/27 00:38:12;;;;;;;25.23;11.50;;;;;;;;;;5067800;28;20086;-72
2022/01/27 00:40:38;;;;;;;25.30;9.73;;;;;;;;;;5069162;28;20454;-70
2022/01/27 00:43:03;;;;;;;24.93;10.00;;;;;;;;;;5069067;28;20237;-72
2022/01/27 00:45:30;;;;;;;25.40;11.03;;;;;;;;;;5067756;28;20395;-71
2022/01/27 00:47:57;;;;;;;20.73;9.00;;;;;;;;;;5069440;28;20021;-71
2022/01/27 00:50:22;;;;;;;23.70;9.60;;;;;;;;;;5069465;28;20021;-71
2022/01/27 00:52:52;;;;;;;25.63;9.67;;;;;;;;;;5068646;28;20526;-71
2022/01/27 00:55:18;;;;;;;27.80;10.20;;;;;;;;;;5068964;28;20024;-71
2022/01/27 01:00:21;;;;;;;17.95;8.13;;;;;;;;;;5069542;28;20036;-72
2022/01/27 01:02:53;;;;;;;23.95;10.20;;;;;;;;;;5068753;28;20028;-70
2022/01/27 01:07:51;;;;;;;22.63;9.90;;;;;;;;;;5068872;28;20033;-72
2022/01/27 01:11:09;;;;;;;27.90;10.97;;;;;;;;;;5067944;28;20025;-71
2022/01/27 01:15:50;;;;;;;30.80;13.37;;;;;;;;;;5068920;28;20119;-70
2022/01/27 01:18:42;;;;;;;23.67;9.70;;;;;;;;;;5068809;28;20260;-70
2022/01/27 01:21:35;;;;;;;30.53;11.73;;;;;;;;;;5067274;28;20028;-72
2022/01/27 01:32:58;;;;;;;28.90;11.97;;;;;;;;;;5068929;28;20039;-71
2022/01/27 01:34:59;;;;;;;29.67;11.07;;;;;;;;;;5064420;28;20123;-71
2022/01/27 01:37:25;;;;;;;32.23;12.50;;;;;;;;;;5068917;28;20021;-71
2022/01/27 01:39:51;;;;;;;32.47;11.83;;;;;;;;;;5067607;28;20472;-72
2022/01/27 01:42:16;;;;;;;26.40;11.10;;;;;;;;;;5069578;28;20032;-71
2022/01/27 01:44:43;;;;;;;30.80;11.93;;;;;;;;;;5068682;28;20414;-71
2022/01/27 01:47:09;;;;;;;31.93;11.70;;;;;;;;;;5067710;28;20469;-72
2022/01/27 01:49:34;;;;;;;35.13;12.77;;;;;;;;;;5067514;28;20031;-72
2022/01/27 01:52:05;;;;;;;30.10;13.17;;;;;;;;;;5071126;28;20395;-72
2022/01/27 01:54:30;;;;;;;32.70;12.50;;;;;;;;;;5071390;28;20111;-69
2022/01/27 01:56:56;;;;;;;30.10;11.77;;;;;;;;;;5071090;28;20495;-72
2022/01/27 01:59:21;;;;;;;31.33;11.03;;;;;;;;;;5073786;28;20021;-71
2022/01/27 02:01:47;;;;;;;32.43;13.30;;;;;;;;;;5073045;28;20108;-71
2022/01/27 02:04:13;;;;;;;29.23;13.13;;;;;;;;;;5071313;28;20021;-71
2022/01/27 02:06:47;;;;;;;31.97;12.77;;;;;;;;;;5070557;28;20421;-71
2022/01/27 02:09:23;;;;;;;30.27;11.70;;;;;;;;;;5072534;28;20070;-72
2022/01/27 02:20:11;;;;;;;31.83;11.77;;;;;;;;;;5072533;28;20400;-71
2022/01/27 02:22:38;;;;;;;29.63;12.63;;;;;;;;;;5070814;28;20028;-71
2022/01/27 02:25:04;;;;;;;36.07;13.27;;;;;;;;;;5070770;28;20016;-70
2022/01/27 02:27:30;;;;;;;31.90;12.70;;;;;;;;;;5072099;28;20035;-72
2022/01/27 02:29:56;;;;;;;26.97;11.13;;;;;;;;;;5071563;28;20020;-72
2022/01/27 02:32:22;;;;;;;29.30;11.83;;;;;;;;;;5071703;28;20033;-71
2022/01/27 02:34:48;;;;;;;32.07;12.67;;;;;;;;;;5071471;28;20037;-71
2022/01/27 02:37:14;;;;;;;35.57;12.97;;;;;;;;;;5070153;28;20115;-72
2022/01/27 02:39:39;;;;;;;33.87;13.83;;;;;;;;;;5070693;28;20528;-72
2022/01/27 02:42:30;;;;;;;31.93;12.97;;;;;;;;;;5070401;28;20028;-72
2022/01/27 02:45:12;;;;;;;32.13;10.63;;;;;;;;;;5070188;28;20484;-71
2022/01/27 02:47:38;;;;;;;30.23;11.50;;;;;;;;;;5070496;28;20588;-72
2022/01/27 02:50:06;;;;;;;32.07;12.80;;;;;;;;;;5070497;28;20024;-74
2022/01/27 02:52:32;;;;;;;32.80;11.23;;;;;;;;;;5071606;28;20033;-71
2022/01/27 02:54:58;;;;;;;27.93;12.77;;;;;;;;;;5069792;28;20028;-72
2022/01/27 02:57:24;;;;;;;36.27;12.17;;;;;;;;;;5070221;28;20025;-72
2022/01/27 02:59:50;;;;;;;27.90;11.23;;;;;;;;;;5069643;28;20020;-72
2022/01/27 03:02:16;;;;;;;27.67;11.33;;;;;;;;;;5068522;28;20116;-72
2022/01/27 03:04:42;;;;;;;27.83;11.33;;;;;;;;;;5069486;28;20109;-71
2022/01/27 03:07:08;;;;;;;31.80;10.63;;;;;;;;;;5071180;28;20339;-72
2022/01/27 03:09:34;;;;;;;28.27;10.77;;;;;;;;;;5071600;28;20036;-70
2022/01/27 03:12:06;;;;;;;27.43;11.80;;;;;;;;;;5069711;28;20105;-70
2022/01/27 03:14:31;;;;;;;30.35;12.02;;;;;;;;;;5069774;28;20016;-71
2022/01/27 03:16:59;;;;;;;26.80;10.43;;;;;;;;;;5069559;28;20163;-71
2022/01/27 03:19:26;;;;;;;32.90;13.27;;;;;;;;;;5069699;28;20340;-71
2022/01/27 03:21:53;;;;;;;38.17;13.37;;;;;;;;;;5070739;28;20024;-72
2022/01/27 03:24:23;;;;;;;26.33;11.50;;;;;;;;;;5070756;28;20033;-71
2022/01/27 03:26:50;;;;;;;30.67;11.43;;;;;;;;;;5071275;28;20036;-70
2022/01/27 03:29:17;;;;;;;24.73;11.93;;;;;;;;;;5069608;28;20146;-72
2022/01/27 03:31:43;;;;;;;33.33;12.67;;;;;;;;;;5069554;28;20036;-71
2022/01/27 03:34:09;;;;;;;34.60;12.53;;;;;;;;;;5070774;28;20431;-72
2022/01/27 03:36:35;;;;;;;30.03;12.83;;;;;;;;;;5069511;28;20028;-73
2022/01/27 03:39:00;;;;;;;28.73;12.03;;;;;;;;;;5068922;28;20424;-71
2022/01/27 03:41:31;;;;;;;31.03;11.90;;;;;;;;;;5069211;28;20028;-72
2022/01/27 03:43:57;;;;;;;39.20;13.03;;;;;;;;;;5070691;28;20032;-71
2022/01/27 03:46:23;;;;;;;34.03;12.93;;;;;;;;;;5069271;28;20035;-71
2022/01/27 03:48:48;;;;;;;27.83;12.67;;;;;;;;;;5068799;28;20032;-71
2022/01/27 03:51:14;;;;;;;27.87;11.43;;;;;;;;;;5070259;28;20033;-71
2022/01/27 03:53:40;;;;;;;29.37;12.10;;;;;;;;;;5070324;28;20384;-71
2022/01/27 03:56:06;;;;;;;34.67;14.40;;;;;;;;;;5052014;28;20044;-72
2022/01/27 03:58:33;;;;;;;30.70;13.40;;;;;;;;;;5069031;28;20373;-70
2022/01/27 04:01:01;;;;;;;36.00;13.03;;;;;;;;;;5070334;28;20437;-71
2022/01/27 04:03:28;;;;;;;30.13;12.13;;;;;;;;;;5070220;28;20461;-72
2022/01/27 04:05:56;;;;;;;36.53;13.70;;;;;;;;;;5070066;28;20062;-71
2022/01/27 04:08:22;;;;;;;36.93;12.70;;;;;;;;;;5068753;28;20576;-72
2022/01/27 04:10:49;;;;;;;35.43;14.17;;;;;;;;;;5069751;28;20029;-71
2022/01/27 04:13:15;;;;;;;35.07;14.13;;;;;;;;;;5068405;28;20028;-72
2022/01/27 04:15:42;;;;;;;37.67;13.70;;;;;;;;;;5068273;28;20046;-72
2022/01/27 04:18:09;;;;;;;36.60;13.03;;;;;;;;;;5068276;28;20137;-70
2022/01/27 04:20:35;;;;;;;35.53;12.20;;;;;;;;;;5068747;28;20557;-71
2022/01/27 04:23:00;;;;;;;37.97;12.57;;;;;;;;;;5070154;28;20074;-70
2022/01/27 04:25:26;;;;;;;33.77;12.03;;;;;;;;;;5068464;28;20046;-71
2022/01/27 04:27:56;;;;;;;35.43;12.63;;;;;;;;;;5068194;28;20499;-71
2022/01/27 04:30:25;;;;;;;35.47;12.20;;;;;;;;;;5069733;28;20494;-71
2022/01/27 04:32:54;;;;;;;28.57;11.97;;;;;;;;;;5069318;28;20063;-72
2022/01/27 04:35:23;;;;;;;33.80;13.10;;;;;;;;;;5067874;28;20076;-72
2022/01/27 04:43:14;;;;;;;32.33;11.93;;;;;;;;;;5069715;28;20546;-72
2022/01/27 04:45:59;;;;;;;33.10;11.30;;;;;;;;;;5067996;28;20043;-70
2022/01/27 04:48:26;;;;;;;32.20;11.80;;;;;;;;;;5069371;28;20032;-70
2022/01/27 04:50:53;;;;;;;35.43;13.97;;;;;;;;;;5067932;28;20040;-72
2022/01/27 04:53:34;;;;;;;32.80;13.20;;;;;;;;;;5069258;28;20476;-72
2022/01/27 04:56:00;;;;;;;30.20;12.53;;;;;;;;;;5069172;28;20025;-73
2022/01/27 04:58:32;;;;;;;36.13;13.83;;;;;;;;;;5069522;28;20059;-70
2022/01/27 05:01:02;;;;;;;33.63;11.45;;;;;;;;;;5067555;28;20032;-71
2022/01/27 05:03:41;;;;;;;32.37;12.63;;;;;;;;;;5069154;28;20043;-71
2022/01/27 05:06:07;;;;;;;30.00;13.50;;;;;;;;;;5067677;28;20055;-72
2022/01/27 05:08:33;;;;;;;33.30;13.23;;;;;;;;;;5069451;28;20040;-71
2022/01/27 05:11:05;;;;;;;26.37;11.20;;;;;;;;;;5067449;28;20025;-70
2022/01/27 05:13:39;;;;;;;23.80;12.20;;;;;;;;;;5069084;28;20016;-71
2022/01/27 05:16:04;;;;;;;28.20;11.10;;;;;;;;;;5067551;28;20499;-71
2022/01/27 05:18:30;;;;;;;25.73;10.87;;;;;;;;;;5067994;28;20032;-71
2022/01/27 05:20:55;;;;;;;30.87;12.30;;;;;;;;;;5067545;28;20028;-72
2022/01/27 05:23:21;;;;;;;31.27;11.50;;;;;;;;;;5068599;28;20036;-70
2022/01/27 05:25:46;;;;;;;28.23;11.50;;;;;;;;;;5070082;28;20028;-72
2022/01/27 05:28:12;;;;;;;29.60;12.50;;;;;;;;;;5073035;28;20028;-71
2022/01/27 05:30:37;;;;;;;28.03;10.73;;;;;;;;;;5071670;28;20283;-70
2022/01/27 05:33:03;;;;;;;29.87;11.60;;;;;;;;;;5072668;28;20055;-71
2022/01/27 05:35:29;;;;;;;27.40;12.37;;;;;;;;;;5072880;28;20032;-70
2022/01/27 05:37:54;;;;;;;26.53;11.30;;;;;;;;;;5072619;28;20074;-71
2022/01/27 05:40:20;;;;;;;22.30;9.97;;;;;;;;;;5072840;28;20099;-71
2022/01/27 05:42:45;;;;;;;28.07;11.13;;;;;;;;;;5072616;28;20120;-73
2022/01/27 05:45:11;;;;;;;23.80;10.53;;;;;;;;;;5072281;28;20033;-70
2022/01/27 05:47:36;;;;;;;24.80;11.93;;;;;;;;;;5071274;28;20027;-72
2022/01/27 05:50:03;;;;;;;21.07;10.67;;;;;;;;;;5072184;28;20029;-71
2022/01/27 05:52:28;;;;;;;21.53;10.77;;;;;;;;;;5072756;28;20583;-72
2022/01/27 05:54:54;;;;;;;22.13;10.50;;;;;;;;;;5072551;28;20117;-71
2022/01/27 05:57:19;;;;;;;25.30;11.67;;;;;;;;;;5071162;28;20028;-71
2022/01/27 05:59:45;;;;;;;24.60;10.57;;;;;;;;;;5070967;28;20421;-72
2022/01/27 06:02:10;;;;;;;22.83;11.07;;;;;;;;;;5072357;28;20029;-71
2022/01/27 06:04:36;;;;;;;24.70;10.37;;;;;;;;;;5072307;28;20538;-72
2022/01/27 06:07:02;;;;;;;26.23;11.33;;;;;;;;;;5072069;28;20476;-71
2022/01/27 06:09:27;;;;;;;26.53;11.20;;;;;;;;;;5070814;28;20039;-72
2022/01/27 06:11:53;;;;;;;21.80;9.53;;;;;;;;;;5071779;28;20025;-73
2022/01/27 06:14:18;;;;;;;20.57;10.03;;;;;;;;;;5071974;28;20028;-73
2022/01/27 06:16:45;;;;;;;22.63;10.57;;;;;;;;;;5070690;28;20028;-70
2022/01/27 06:19:11;;;;;;;18.70;8.60;;;;;;;;;;5070329;28;20039;-73
2022/01/27 06:21:39;;;;;;;19.13;9.97;;;;;;;;;;5069779;28;20017;-72
2022/01/27 06:24:06;;;;;;;22.53;9.83;;;;;;;;;;5066603;28;20024;-74
2022/01/27 06:26:32;;;;;;;19.27;8.87;;;;;;;;;;5069077;28;20600;-72
2022/01/27 06:28:58;;;;;;;21.10;10.73;;;;;;;;;;5068191;28;20036;-69
2022/01/27 06:31:24;;;;;;;23.33;9.60;;;;;;;;;;5068998;28;20044;-74
2022/01/27 06:33:50;;;;;;;18.30;9.23;;;;;;;;;;5070043;28;20020;-71
2022/01/27 06:36:15;;;;;;;17.50;8.33;;;;;;;;;;5068472;28;20526;-72
2022/01/27 06:38:41;;;;;;;23.07;10.17;;;;;;;;;;5062231;28;20051;-70
2022/01/27 06:41:09;;;;;;;19.63;8.97;;;;;;;;;;5062946;28;20495;-72
2022/01/27 06:43:35;;;;;;;15.77;7.27;;;;;;;;;;5065028;28;20036;-71
2022/01/27 06:46:00;;;;;;;18.47;7.80;;;;;;;;;;5064881;28;20087;-69
2022/01/27 06:48:27;;;;;;;19.00;7.67;;;;;;;;;;5061160;28;20526;-72
2022/01/27 06:50:55;;;;;;;25.40;10.30;;;;;;;;;;5074602;28;20034;-70
2022/01/27 06:53:21;;;;;;;18.23;8.83;;;;;;;;;;5069478;28;20020;-71
2022/01/27 06:55:47;;;;;;;19.60;9.80;;;;;;;;;;5066531;28;20420;-70
2022/01/27 06:58:13;;;;;;;18.73;8.87;;;;;;;;;;5068735;28;20147;-69
2022/01/27 07:00:39;;;;;;;18.43;8.80;;;;;;;;;;5068877;28;20492;-72
2022/01/27 07:03:04;;;;;;;17.83;8.93;;;;;;;;;;5068628;28;20081;-70
2022/01/27 07:05:32;;;;;;;16.13;8.37;;;;;;;;;;5063184;28;20025;-70
2022/01/27 07:07:58;;;;;;;24.23;8.87;;;;;;;;;;5063685;28;20123;-70
2022/01/27 07:10:23;;;;;;;13.47;7.20;;;;;;;;;;5068126;28;20028;-71
2022/01/27 07:12:49;;;;;;;21.23;9.17;;;;;;;;;;5068052;28;20050;-69
2022/01/27 07:15:15;;;;;;;20.70;9.17;;;;;;;;;;5067432;28;20991;-72
2022/01/27 07:17:40;;;;;;;18.23;9.13;;;;;;;;;;5066733;28;20094;-72
2022/01/27 07:20:07;;;;;;;16.70;7.63;;;;;;;;;;5062855;28;20077;-71
2022/01/27 07:22:33;;;;;;;23.07;9.53;;;;;;;;;;5065267;28;20138;-70
2022/01/27 07:24:59;;;;;;;25.23;9.07;;;;;;;;;;5063652;28;20047;-70
2022/01/27 07:27:25;;;;;;;20.60;9.83;;;;;;;;;;5062223;28;20453;-70
2022/01/27 07:29:50;;;;;;;16.30;8.00;;;;;;;;;;5068549;28;20583;-70
2022/01/27 07:32:19;;;;;;;19.43;8.70;;;;;;;;;;5060399;28;20085;-70
2022/01/27 07:34:45;;;;;;;19.33;9.60;;;;;;;;;;5064342;28;20404;-72
2022/01/27 07:37:10;;;;;;;19.47;8.83;;;;;;;;;;5060325;28;20029;-74
2022/01/27 07:39:36;;;;;;;22.30;10.27;;;;;;;;;;5060613;28;20044;-69
2022/01/27 07:42:02;;;;;;;17.60;8.50;;;;;;;;;;5062393;28;20028;-75
2022/01/27 07:44:28;;;;;;;20.40;9.07;;;;;;;;;;5064012;28;20028;-71
2022/01/27 07:46:54;;;;;;;24.73;10.23;;;;;;;;;;5060226;28;20036;-71
2022/01/27 07:49:20;;;;;;;23.77;9.57;;;;;;;;;;5062970;28;20032;-73
2022/01/27 07:51:46;;;;;;;20.43;9.63;;;;;;;;;;5062663;28;20040;-71
2022/01/27 07:54:12;;;;;;;22.80;9.37;;;;;;;;;;5059761;28;20131;-72
2022/01/27 07:56:38;;;;;;;22.53;10.50;;;;;;;;;;5058104;28;20115;-73
2022/01/27 07:59:03;;;;;;;23.53;9.33;;;;;;;;;;5060492;28;20511;-72
2022/01/27 08:01:29;;;;;;;19.40;9.60;;;;;;;;;;5062475;28;20036;-70
2022/01/27 08:03:54;;;;;;;19.37;9.00;;;;;;;;;;5062390;28;20059;-71
2022/01/27 08:06:20;;;;;;;21.00;8.23;;;;;;;;;;5062673;28;20021;-72
2022/01/27 08:08:46;;;;;;;20.43;9.37;;;;;;;;;;5065134;28;20118;-73
2022/01/27 08:11:12;;;;;;;21.43;9.07;;;;;;;;;;5062841;28;20055;-73
2022/01/27 08:13:37;;;;;;;20.50;9.80;;;;;;;;;;5063369;28;20102;-72
2022/01/27 08:16:03;;;;;;;20.07;9.53;;;;;;;;;;5061294;28;21085;-70
2022/01/27 08:18:29;;;;;;;16.67;8.33;;;;;;;;;;5062660;28;20036;-71
2022/01/27 08:20:54;;;;;;;21.90;8.67;;;;;;;;;;5065347;28;20035;-73
2022/01/27 08:23:20;;;;;;;17.17;8.93;;;;;;;;;;5069288;28;20571;-73
2022/01/27 08:25:49;;;;;;;19.57;8.97;;;;;;;;;;5067087;28;20023;-72
2022/01/27 08:28:26;;;;;;;20.47;9.53;;;;;;;;;;5060794;28;20041;-70
2022/01/27 08:30:53;;;;;;;27.13;9.90;;;;;;;;;;5061843;28;20376;-73
2022/01/27 08:33:20;;;;;;;23.63;10.23;;;;;;;;;;5064272;28;20027;-72
2022/01/27 08:35:45;;;;;;;19.23;7.80;;;;;;;;;;5063037;28;20031;-73
2022/01/27 08:38:12;;;;;;;21.23;10.60;;;;;;;;;;5077935;28;20048;-73
2022/01/27 08:40:37;;;;;;;16.87;8.97;;;;;;;;;;5062691;28;20029;-70
2022/01/27 08:43:04;;;;;;;20.57;9.37;;;;;;;;;;5062251;28;20460;-73
2022/01/27 08:45:30;;;;;;;22.00;9.63;;;;;;;;;;5059877;28;20036;-70
2022/01/27 08:47:58;;;;;;;28.77;9.17;;;;;;;;;;5065990;28;20506;-70
2022/01/27 08:50:24;;;;;;;21.57;11.47;;;;;;;;;;5046540;28;20032;-74
2022/01/27 08:52:50;;;;;;;21.30;8.67;;;;;;;;;;5062794;28;20025;-72
2022/01/27 08:55:17;;;;;;;23.07;9.37;;;;;;;;;;5061271;28;20039;-73
2022/01/27 08:57:43;;;;;;;15.77;8.43;;;;;;;;;;5062582;28;20036;-72
2022/01/27 09:00:11;;;;;;;14.50;7.70;;;;;;;;;;5060416;28;20040;-71
2022/01/27 09:02:37;;;;;;;15.27;7.53;;;;;;;;;;5061891;28;20055;-73
2022/01/27 09:05:03;;;;;;;20.83;8.60;;;;;;;;;;5056580;28;20041;-73
2022/01/27 09:07:30;;;;;;;22.67;10.43;;;;;;;;;;5059950;28;20111;-72
2022/01/27 09:09:57;;;;;;;17.00;9.50;;;;;;;;;;5059245;28;20127;-73
2022/01/27 09:12:22;;;;;;;18.80;9.33;;;;;;;;;;5060654;28;20029;-71
2022/01/27 09:14:48;;;;;;;19.93;7.93;;;;;;;;;;5059856;28;20419;-74
2022/01/27 09:17:15;;;;;;;18.27;9.37;;;;;;;;;;5058253;28;20032;-74
2022/01/27 09:19:44;;;;;;;19.63;9.50;;;;;;;;;;5060263;28;20163;-72
2022/01/27 09:22:13;;;;;;;22.87;9.40;;;;;;;;;;5060580;28;20036;-73
2022/01/27 09:24:51;;;;;;;18.70;9.13;;;;;;;;;;5062883;28;20459;-71
2022/01/27 09:27:18;;;;;;;19.50;8.43;;;;;;;;;;5073039;28;20036;-74
2022/01/27 09:29:47;;;;;;;19.67;8.20;;;;;;;;;;5059611;28;20044;-74
2022/01/27 09:32:12;;;;;;;18.40;9.50;;;;;;;;;;5061366;28;20074;-71
2022/01/27 09:34:38;;;;;;;20.17;10.17;;;;;;;;;;5058725;28;20115;-73
2022/01/27 09:37:04;;;;;;;18.77;9.83;;;;;;;;;;5058594;28;20036;-73
2022/01/27 09:39:33;;;;;;;20.13;8.83;;;;;;;;;;5060891;28;20052;-71
2022/01/27 09:42:01;;;;;;;20.17;9.67;;;;;;;;;;5056841;28;20032;-72
2022/01/27 09:44:30;;;;;;;22.57;10.37;;;;;;;;;;5061112;28;20033;-71
2022/01/27 09:47:00;;;;;;;20.47;9.90;;;;;;;;;;5060456;28;20024;-71
2022/01/27 09:49:42;;;;;;;21.70;8.93;;;;;;;;;;5059703;28;20029;-72
2022/01/27 09:52:10;;;;;;;19.90;9.43;;;;;;;;;;5060394;28;20040;-74
2022/01/27 09:54:36;;;;;;;17.53;9.00;;;;;;;;;;5054904;28;20051;-71
2022/01/27 09:57:04;;;;;;;15.10;7.70;;;;;;;;;;5058260;28;20032;-73
2022/01/27 09:59:30;;;;;;;20.57;9.63;;;;;;;;;;5061709;28;20048;-72
2022/01/27 10:02:04;;;;;;;20.77;10.23;;;;;;;;;;5043250;28;20036;-74
2022/01/27 10:04:49;;;;;;;19.73;9.17;;;;;;;;;;5062412;28;20703;-72
2022/01/27 10:07:21;;;;;;;20.23;9.40;;;;;;;;;;5062087;28;20043;-73
2022/01/27 10:10:08;;;;;;;25.08;11.13;;;;;;;;;;5065768;28;20039;-76
2022/01/27 10:12:39;;;;;;;21.57;9.70;;;;;;;;;;5077161;28;20051;-72
2022/01/27 10:15:11;;;;;;;23.03;11.57;;;;;;;;;;5043382;28;20090;-73
2022/01/27 10:17:40;;;;;;;17.00;9.70;;;;;;;;;;5062252;28;20028;-75
2022/01/27 10:20:17;;;;;;;19.73;9.07;;;;;;;;;;5063774;28;20556;-74
2022/01/27 10:23:05;;;;;;;20.47;9.20;;;;;;;;;;5047676;28;20049;-72
2022/01/27 10:25:35;;;;;;;22.30;10.10;;;;;;;;;;5062096;28;20039;-73
2022/01/27 10:28:11;;;;;;;20.87;8.73;;;;;;;;;;5060008;28;20024;-75
2022/01/27 10:30:46;;;;;;;16.43;8.43;;;;;;;;;;5064630;28;20059;-73
2022/01/27 10:33:12;;;;;;;20.10;9.00;;;;;;;;;;5062501;28;20043;-75
2022/01/27 10:35:43;;;;;;;20.50;8.60;;;;;;;;;;5063455;28;20413;-70
2022/01/27 10:38:12;;;;;;;19.58;8.15;;;;;;;;;;5047669;28;20134;-73
2022/01/27 10:40:43;;;;;;;22.77;9.57;;;;;;;;;;5059559;28;20555;-74
2022/01/27 10:43:11;;;;;;;23.42;9.57;;;;;;;;;;5060848;28;20064;-73
2022/01/27 10:45:40;;;;;;;23.67;9.73;;;;;;;;;;5058069;28;20040;-73
2022/01/27 10:48:13;;;;;;;20.40;9.50;;;;;;;;;;5066058;28;20024;-74
2022/01/27 10:50:50;;;;;;;20.73;9.90;;;;;;;;;;5064836;28;20031;-72
2022/01/27 10:53:18;;;;;;;22.87;9.77;;;;;;;;;;5063991;28;20036;-75
2022/01/27 10:55:45;;;;;;;25.37;9.43;;;;;;;;;;5063512;28;20120;-76
2022/01/27 10:58:27;;;;;;;20.80;9.27;;;;;;;;;;5063556;28;20086;-72
2022/01/27 11:00:57;;;;;;;;;;;;;;;;;;5062651;28;20020;-72
2022/01/27 11:03:27;;;;;;;19.23;9.43;;;;;;;;;;5060775;28;19919;-73
2022/01/27 11:05:56;;;;;;;23.00;7.97;;;;;;;;;;5057417;28;20025;-72
2022/01/27 11:08:24;;;;;;;20.27;9.77;;;;;;;;;;5061052;28;20114;-75
2022/01/27 11:10:50;;;;;;;15.23;7.97;;;;;;;;;;5065058;28;20028;-72
2022/01/27 11:13:19;;;;;;;19.00;7.40;;;;;;;;;;5063243;28;20322;-74
2022/01/27 11:15:45;;;;;;;20.97;8.37;;;;;;;;;;5060903;28;20388;-70
2022/01/27 11:18:16;;;;;;;18.17;8.77;;;;;;;;;;5061211;28;20549;-74
2022/01/27 11:20:53;;;;;;;19.20;9.13;;;;;;;;;;5063159;28;20129;-73
2022/01/27 11:26:12;;;;;;;19.70;7.73;;;;;;;;;;5062942;28;20044;-73
2022/01/27 11:28:44;;;;;;;20.43;9.07;;;;;;;;;;5064990;28;20107;-72
2022/01/27 11:31:33;;;;;;;17.45;8.15;;;;;;;;;;5063716;28;20040;-73
2022/01/27 11:34:05;;;;;;;21.53;8.23;;;;;;;;;;5061777;28;20104;-72
2022/01/27 11:36:31;;;;;;;20.08;9.55;;;;;;;;;;5057791;28;20052;-72
2022/01/27 11:38:58;;;;;;;18.47;8.63;;;;;;;;;;5061669;28;20491;-71
2022/01/27 11:41:42;;;;;;;20.60;8.43;;;;;;;;;;5061411;28;20073;-72
2022/01/27 11:44:32;;;;;;;25.63;9.80;;;;;;;;;;5061494;28;20047;-74
2022/01/27 11:47:14;;;;;;;20.57;9.57;;;;;;;;;;5063827;28;20132;-71
2022/01/27 11:49:53;;;;;;;20.33;8.93;;;;;;;;;;5062844;28;20039;-71
2022/01/27 11:52:47;;;;;;;31.27;12.90;;;;;;;;;;5076041;28;20138;-73
2022/01/27 11:55:25;;;;;;;17.53;8.43;;;;;;;;;;5059022;28;20036;-74
2022/01/27 11:57:58;;;;;;;21.40;9.07;;;;;;;;;;5059348;28;20043;-72
2022/01/27 12:00:28;;;;;;;25.57;9.57;;;;;;;;;;5060340;28;20028;-71
2022/01/27 12:03:03;;;;;;;17.83;9.20;;;;;;;;;;5056978;28;20424;-71
2022/01/27 12:05:39;;;;;;;20.17;8.20;;;;;;;;;;5058655;28;20035;-73
2022/01/27 12:08:14;;;;;;;19.97;8.67;;;;;;;;;;5063563;28;20524;-71
2022/01/27 12:10:45;;;;;;;18.67;8.87;;;;;;;;;;5062403;28;20062;-73
2022/01/27 12:13:29;;;;;;;18.05;8.82;;;;;;;;;;5061593;28;20028;-73
2022/01/27 12:19:11;;;;;;;17.23;7.37;;;;;;;;;;5052231;28;20036;-71
2022/01/27 12:21:55;;;;;;;12.80;6.67;;;;;;;;;;5061775;28;20972;-72
2022/01/27 12:24:31;;;;;;;17.53;8.20;;;;;;;;;;5063170;28;20042;-71
2022/01/27 12:26:57;;;;;;;17.97;7.97;;;;;;;;;;5062106;28;20496;-71
2022/01/27 12:29:42;;;;;;;17.60;7.43;;;;;;;;;;5062512;28;20020;-72
2022/01/27 12:32:16;;;;;;;16.83;8.47;;;;;;;;;;5060149;28;20497;-72
2022/01/27 12:34:46;;;;;;;18.10;7.90;;;;;;;;;;5061343;28;20032;-71
2022/01/27 12:37:12;;;;;;;19.30;8.63;;;;;;;;;;5062134;28;20043;-71
2022/01/27 12:39:44;;;;;;;16.80;8.90;;;;;;;;;;5060139;28;20052;-73
2022/01/27 12:42:14;;;;;;;14.80;7.68;;;;;;;;;;5071396;28;20044;-73
2022/01/27 12:44:51;;;;;;;15.00;7.50;;;;;;;;;;5077274;28;20068;-72
2022/01/27 12:47:17;;;;;;;14.43;6.97;;;;;;;;;;5059783;28;20028;-72
2022/01/27 12:49:44;;;;;;;20.40;7.97;;;;;;;;;;5061866;28;20058;-75
2022/01/27 12:52:16;;;;;;;19.37;7.83;;;;;;;;;;5060845;28;20032;-71
2022/01/27 12:54:43;;;;;;;17.37;8.37;;;;;;;;;;5047055;28;20032;-71
2022/01/27 12:57:12;;;;;;;15.63;8.47;;;;;;;;;;5058486;28;20035;-71
2022/01/27 12:59:43;;;;;;;15.27;8.17;;;;;;;;;;5060730;28;20136;-73
2022/01/27 13:02:11;;;;;;;18.73;9.37;;;;;;;;;;5060044;28;20047;-72
2022/01/27 13:04:38;;;;;;;20.00;7.77;;;;;;;;;;5059230;28;20036;-71
2022/01/27 13:07:05;;;;;;;21.57;9.60;;;;;;;;;;5054277;28;20035;-74
2022/01/27 13:09:32;;;;;;;15.83;8.20;;;;;;;;;;5059334;28;20067;-72
2022/01/27 13:12:09;;;;;;;17.73;8.10;;;;;;;;;;5058678;28;20052;-72
2022/01/27 13:14:50;;;;;;;20.83;9.30;;;;;;;;;;5058802;28;20033;-73
2022/01/27 13:17:27;;;;;;;23.57;8.97;;;;;;;;;;5058895;28;20071;-72
2022/01/27 13:19:58;;;;;;;16.50;9.07;;;;;;;;;;5056895;28;20020;-72
2022/01/27 13:22:31;;;;;;;18.77;8.80;;;;;;;;;;5055501;28;20306;-72
2022/01/27 13:24:56;;;;;;;17.63;8.33;;;;;;;;;;5055479;28;20028;-74
2022/01/27 13:27:22;;;;;;;19.67;9.23;;;;;;;;;;5057284;28;20039;-71
2022/01/27 13:29:48;;;;;;;18.03;8.53;;;;;;;;;;5057144;28;20350;-73
2022/01/27 13:32:14;;;;;;;18.17;9.90;;;;;;;;;;5056578;28;20040;-71
2022/01/27 13:34:48;;;;;;;18.13;8.07;;;;;;;;;;5072829;28;20416;-73
2022/01/27 13:37:26;;;;;;;18.07;7.83;;;;;;;;;;5054254;28;20469;-73
2022/01/27 13:42:20;;;;;;;17.47;8.07;;;;;;;;;;5060241;28;20068;-72
2022/01/27 13:44:57;;;;;;;17.57;8.23;;;;;;;;;;5057698;28;20177;-73
2022/01/27 13:47:25;;;;;;;20.73;10.40;;;;;;;;;;5059510;28;20150;-71
2022/01/27 13:49:52;;;;;;;19.50;9.70;;;;;;;;;;5063558;28;20429;-72
2022/01/27 13:52:18;;;;;;;16.60;9.53;;;;;;;;;;5061370;28;20123;-73
2022/01/27 13:54:47;;;;;;;18.03;7.97;;;;;;;;;;5064661;28;20036;-71
2022/01/27 13:57:14;;;;;;;18.00;8.77;;;;;;;;;;5059649;28;20124;-72
2022/01/27 13:59:58;;;;;;;21.53;8.77;;;;;;;;;;5063383;28;20040;-71
2022/01/27 14:02:27;;;;;;;19.67;7.93;;;;;;;;;;5077734;28;20387;-70
2022/01/27 14:04:55;;;;;;;20.80;6.67;;;;;;;;;;5066666;28;20115;-71
2022/01/27 14:07:29;;;;;;;18.73;8.07;;;;;;;;;;5057670;28;20037;-72
2022/01/27 14:09:55;;;;;;;20.93;8.27;;;;;;;;;;5050856;28;20028;-73
2022/01/27 14:12:26;;;;;;;18.10;8.80;;;;;;;;;;5051916;28;20059;-70
2022/01/27 14:14:53;;;;;;;21.77;8.82;;;;;;;;;;5051658;28;20460;-70
2022/01/27 14:17:18;;;;;;;15.20;7.67;;;;;;;;;;5050653;28;20111;-72
2022/01/27 14:19:44;;;;;;;20.13;7.83;;;;;;;;;;5051387;28;20104;-71
2022/01/27 14:22:16;;;;;;;14.00;6.83;;;;;;;;;;5051669;28;20476;-71
2022/01/27 14:25:22;;;;;;;20.42;8.00;;;;;;;;;;5050708;28;20888;-71
2022/01/27 14:27:47;;;;;;;14.80;6.33;;;;;;;;;;5050696;28;20048;-72
2022/01/27 14:30:16;;;;;;;19.70;9.87;;;;;;;;;;5067117;28;20041;-71
2022/01/27 14:32:43;;;;;;;20.03;9.63;;;;;;;;;;5051266;28;20049;-71
2022/01/27 14:35:11;;;;;;;21.77;9.93;;;;;;;;;;5049871;28;20488;-71
2022/01/27 14:37:39;;;;;;;22.07;8.73;;;;;;;;;;5050193;28;20039;-73
2022/01/27 14:40:11;;;;;;;20.77;8.83;;;;;;;;;;5050864;28;20037;-72
2022/01/27 14:42:39;;;;;;;23.90;9.73;;;;;;;;;;5050145;28;20033;-71
2022/01/27 14:45:07;;;;;;;20.73;8.43;;;;;;;;;;5051338;28;20296;-71
2022/01/27 14:47:36;;;;;;;17.27;7.77;;;;;;;;;;5050450;28;20119;-72
2022/01/27 14:50:02;;;;;;;22.67;9.43;;;;;;;;;;5050254;28;20025;-73
2022/01/27 14:52:30;;;;;;;21.33;10.33;;;;;;;;;;5049411;28;20016;-72
2022/01/27 14:54:55;;;;;;;25.37;9.57;;;;;;;;;;5050370;28;20021;-71
2022/01/27 14:57:21;;;;;;;17.17;8.10;;;;;;;;;;5050880;28;20024;-72
2022/01/27 14:59:46;;;;;;;14.80;6.67;;;;;;;;;;5051750;28;20028;-72
2022/01/27 15:02:12;;;;;;;17.20;9.13;;;;;;;;;;5051316;28;20109;-70
2022/01/27 15:04:38;;;;;;;16.70;7.13;;;;;;;;;;5049227;28;20562;-72
2022/01/27 15:07:04;;;;;;;20.83;8.00;;;;;;;;;;5052029;28;20029;-73
2022/01/27 15:09:33;;;;;;;18.67;8.47;;;;;;;;;;5067395;28;20025;-71
2022/01/27 15:11:58;;;;;;;22.93;8.70;;;;;;;;;;5049417;28;20065;-72
2022/01/27 15:19:53;;;;;;;21.00;8.43;;;;;;;;;;5050915;28;20035;-74
2022/01/27 15:22:20;;;;;;;19.83;8.13;;;;;;;;;;5048653;28;20017;-71